createdAt,value
2019-04-28T11:52:20.518Z,100260.31
2019-04-28T11:54:58.196Z,100262.78
2019-04-28T11:57:31.991Z,100255.91
2019-04-28T12:00:18.525Z,100259.38
2019-04-28T12:02:51.108Z,100258.17
2019-04-28T12:05:34.599Z,100258.92
2019-04-28T12:08:09.165Z,100263.28
2019-04-28T12:10:58.737Z,100263.84
2019-04-28T12:13:48.722Z,100263.00
2019-04-28T12:16:45.706Z,100249.77
2019-04-28T12:19:37.583Z,100256.53
2019-04-28T12:22:10.724Z,100254.14
2019-04-28T12:24:44.663Z,100254.88
2019-04-28T12:27:28.019Z,100254.89
2019-04-28T12:30:05.678Z,100257.28
2019-04-28T12:32:40.136Z,100256.30
2019-04-28T12:35:15.028Z,100260.17
2019-04-28T12:37:50.784Z,100259.84
2019-04-28T12:40:25.266Z,100265.62
2019-04-28T12:42:57.971Z,100264.88
2019-04-28T12:45:35.141Z,100263.97
2019-04-28T12:48:09.691Z,100266.91
2019-04-28T12:50:49.819Z,100267.16
2019-04-28T12:53:27.670Z,100271.47
2019-04-28T12:56:01.529Z,100274.16
2019-04-28T12:58:37.384Z,100276.80
2019-04-28T13:01:24.043Z,100276.53
2019-04-28T13:04:10.641Z,100281.63
2019-04-28T13:07:01.379Z,100278.41
2019-04-28T13:09:34.741Z,100283.23
2019-04-28T13:12:13.646Z,100282.72
2019-04-28T13:14:47.944Z,100288.80
2019-04-28T13:17:29.509Z,100293.65
2019-04-28T13:20:02.199Z,100295.25
2019-04-28T13:22:37.609Z,100301.29
2019-04-28T13:25:17.051Z,100303.91
2019-04-28T13:27:50.688Z,100305.52
2019-04-28T13:30:25.571Z,100306.02
2019-04-28T13:32:59.886Z,100313.05
2019-04-28T13:35:32.657Z,100311.12
2019-04-28T13:38:05.212Z,100315.95
2019-04-28T13:40:40.065Z,100320.36
2019-04-28T13:43:17.334Z,100321.50
2019-04-28T13:45:51.027Z,100318.72
2019-04-28T13:48:24.561Z,100319.63
2019-04-28T13:50:58.992Z,100321.23
2019-04-28T13:53:32.262Z,100319.69
2019-04-28T13:56:05.148Z,100319.17
2019-04-28T13:58:42.062Z,100320.03
2019-04-28T14:01:35.799Z,100323.61
2019-04-28T14:04:28.648Z,100325.07
2019-04-28T14:07:06.025Z,100327.98
2019-04-28T14:09:40.104Z,100331.81
2019-04-28T14:12:12.897Z,100339.38
2019-04-28T14:14:47.767Z,100339.21
2019-04-28T14:17:21.569Z,100344.38
2019-04-28T14:19:54.241Z,100349.94
2019-04-28T14:22:27.224Z,100350.95
2019-04-28T14:25:01.158Z,100356.98
2019-04-28T14:27:35.398Z,100356.39
2019-04-28T14:30:08.907Z,100354.34
2019-04-28T14:32:46.435Z,100355.36
2019-04-28T14:35:22.795Z,100360.08
2019-04-28T14:37:56.673Z,100359.53
2019-04-28T14:40:29.413Z,100362.47
2019-04-28T14:43:02.510Z,100359.58
2019-04-28T14:45:37.658Z,100360.98
2019-04-28T14:48:10.368Z,100360.35
2019-04-28T14:50:43.465Z,100360.25
2019-04-28T14:53:16.720Z,100356.56
2019-04-28T14:55:52.083Z,100357.83
2019-04-28T14:58:25.721Z,100357.45
2019-04-28T15:01:12.419Z,100357.66
2019-04-28T15:03:52.939Z,100360.52
2019-04-28T15:06:34.014Z,100361.41
2019-04-28T15:09:27.118Z,100359.41
2019-04-28T15:12:11.928Z,100355.57
2019-04-28T15:14:45.411Z,100355.70
2019-04-28T15:17:19.653Z,100355.31
2019-04-28T15:19:52.612Z,100348.48
2019-04-28T15:22:26.664Z,100343.63
2019-04-28T15:25:01.749Z,100344.45
2019-04-28T15:27:41.449Z,100346.28
2019-04-28T15:30:19.905Z,100340.39
2019-04-28T15:32:52.683Z,100344.74
2019-04-28T15:35:25.267Z,100339.86
2019-04-28T15:37:58.184Z,100337.77
2019-04-28T15:40:30.847Z,100337.84
2019-04-28T15:43:03.387Z,100336.99
2019-04-28T15:45:36.101Z,100337.69
2019-04-28T15:48:08.779Z,100337.17
2019-04-28T15:50:41.359Z,100342.06
2019-04-28T15:53:15.107Z,100339.28
2019-04-28T15:56:00.413Z,100340.46
2019-04-28T15:58:34.036Z,100343.38
2019-04-28T16:01:10.535Z,100335.35
2019-04-28T16:03:45.200Z,100339.75
2019-04-28T16:06:19.396Z,100338.45
2019-04-28T16:08:54.164Z,100341.08
2019-04-28T16:11:28.998Z,100344.10
2019-04-28T16:14:03.809Z,100346.20
2019-04-28T16:16:37.014Z,100351.34
2019-04-28T16:19:28.622Z,100351.20
2019-04-28T16:22:02.012Z,100343.23
2019-04-28T16:24:36.233Z,100350.14
2019-04-28T16:27:09.826Z,100345.03
2019-04-28T16:29:43.239Z,100349.89
2019-04-28T16:32:15.855Z,100354.27
2019-04-28T16:34:49.503Z,100357.67
2019-04-28T16:37:23.234Z,100354.95
2019-04-28T16:39:57.121Z,100358.55
2019-04-28T16:42:35.077Z,100363.17
2019-04-28T16:45:21.883Z,100366.02
2019-04-28T16:47:55.299Z,100369.13
2019-04-28T16:50:34.565Z,100369.26
2019-04-28T16:53:08.223Z,100371.11
2019-04-28T16:56:05.141Z,100374.07
2019-04-28T16:58:46.046Z,100371.31
2019-04-28T17:01:42.043Z,100376.76
2019-04-28T17:04:16.637Z,100377.03
2019-04-28T17:06:49.838Z,100378.27
2019-04-28T17:09:26.158Z,100382.92
2019-04-28T17:11:59.340Z,100378.83
2019-04-28T17:14:31.959Z,100385.93
2019-04-28T17:17:04.502Z,100387.63
2019-04-28T17:19:38.924Z,100391.51
2019-04-28T17:22:13.303Z,100391.84
2019-04-28T17:24:47.182Z,100393.46
2019-04-28T17:27:19.755Z,100397.81
2019-04-28T17:29:53.489Z,100401.88
2019-04-28T17:32:28.769Z,100402.75
2019-04-28T17:35:02.424Z,100402.94
2019-04-28T17:37:35.744Z,100401.58
2019-04-28T17:40:13.853Z,100405.05
2019-04-28T17:42:47.503Z,100406.48
2019-04-28T17:45:22.110Z,100415.70
2019-04-28T17:48:05.338Z,100412.82
2019-04-28T17:50:39.103Z,100413.34
2019-04-28T17:53:13.178Z,100412.81
2019-04-28T17:55:46.778Z,100416.53
2019-04-28T17:58:22.700Z,100419.45
2019-04-28T18:01:17.285Z,100423.91
2019-04-28T18:04:12.583Z,100418.31
2019-04-28T18:06:51.712Z,100425.41
2019-04-28T18:09:26.135Z,100432.20
2019-04-28T18:11:58.835Z,100436.38
2019-04-28T18:14:33.180Z,100438.00
2019-04-28T18:17:26.488Z,100444.44
2019-04-28T18:19:59.143Z,100449.33
2019-04-28T18:22:32.458Z,100457.65
2019-04-28T18:25:06.877Z,100461.95
2019-04-28T18:27:39.562Z,100464.13
2019-04-28T18:30:19.316Z,100472.90
2019-04-28T18:33:10.338Z,100476.92
2019-04-28T18:35:49.255Z,100486.09
2019-04-28T18:38:35.268Z,100490.89
2019-04-28T18:41:32.094Z,100497.48
2019-04-28T18:44:19.379Z,100502.55
2019-04-28T18:46:52.019Z,100502.11
2019-04-28T18:49:25.921Z,100507.27
2019-04-28T18:51:59.181Z,100509.89
2019-04-28T18:54:35.307Z,100516.47
2019-04-28T18:57:09.496Z,100514.84
2019-04-28T18:59:43.863Z,100533.47
2019-04-28T19:02:31.683Z,100532.98
2019-04-28T19:05:06.895Z,100540.16
2019-04-28T19:07:46.443Z,100535.34
2019-04-28T19:10:31.044Z,100539.16
2019-04-28T19:13:09.578Z,100545.48
2019-04-28T19:16:02.640Z,100555.59
2019-04-28T19:18:38.939Z,100564.41
2019-04-28T19:21:12.982Z,100568.89
2019-04-28T19:23:47.477Z,100576.34
2019-04-28T19:26:20.124Z,100580.75
2019-04-28T19:28:54.827Z,100582.02
2019-04-28T19:31:29.826Z,100586.34
2019-04-28T19:34:02.759Z,100584.61
2019-04-28T19:36:36.233Z,100589.94
2019-04-28T19:39:10.030Z,100587.50
2019-04-28T19:41:42.791Z,100589.66
2019-04-28T19:44:16.856Z,100602.81
2019-04-28T19:46:52.751Z,100606.37
2019-04-28T19:49:25.395Z,100607.77
2019-04-28T19:51:58.344Z,100610.39
2019-04-28T19:55:01.069Z,100617.75
2019-04-28T19:57:43.701Z,100615.89
2019-04-28T20:00:29.630Z,100615.95
2019-04-28T20:03:02.255Z,100619.17
2019-04-28T20:05:35.996Z,100624.76
2019-04-28T20:08:12.680Z,100623.59
2019-04-28T20:10:45.211Z,100621.19
2019-04-28T20:13:17.844Z,100625.02
2019-04-28T20:15:55.724Z,100625.59
2019-04-28T20:18:29.649Z,100630.50
2019-04-28T20:21:03.377Z,100632.11
2019-04-28T20:23:36.386Z,100632.33
2019-04-28T20:26:09.589Z,100628.05
2019-04-28T20:28:42.775Z,100629.80
2019-04-28T20:31:18.441Z,100639.10
2019-04-28T20:33:51.648Z,100636.23
2019-04-28T20:36:38.968Z,100634.67
2019-04-28T20:39:24.112Z,100635.57
2019-04-28T20:42:18.742Z,100634.64
2019-04-28T20:44:54.678Z,100637.75
2019-04-28T20:47:27.289Z,100645.69
2019-04-28T20:50:00.240Z,100644.27
2019-04-28T20:52:32.960Z,100640.63
2019-04-28T20:55:09.137Z,100643.87
2019-04-28T20:57:43.419Z,100648.19
2019-04-28T21:00:17.657Z,100646.53
2019-04-28T21:02:51.064Z,100650.70
2019-04-28T21:05:24.190Z,100653.59
2019-04-28T21:07:57.555Z,100652.84
2019-04-28T21:10:37.696Z,100656.63
2019-04-28T21:13:12.234Z,100653.99
2019-04-28T21:15:44.768Z,100658.73
2019-04-28T21:18:18.716Z,100663.11
2019-04-28T21:20:51.236Z,100667.72
2019-04-28T21:23:24.419Z,100673.16
2019-04-28T21:26:00.729Z,100673.38
2019-04-28T21:28:36.354Z,100674.61
2019-04-28T21:31:09.749Z,100675.33
2019-04-28T21:33:43.135Z,100677.44
2019-04-28T21:36:18.887Z,100680.94
2019-04-28T21:38:53.863Z,100684.30
2019-04-28T21:41:27.033Z,100681.05
2019-04-28T21:44:14.736Z,100678.97
2019-04-28T21:47:06.327Z,100680.73
2019-04-28T21:49:41.005Z,100679.62
2019-04-28T21:52:13.561Z,100680.34
2019-04-28T21:54:47.572Z,100680.51
2019-04-28T21:57:20.835Z,100675.14
2019-04-28T21:59:56.160Z,100671.72
2019-04-28T22:02:30.094Z,100671.27
2019-04-28T22:05:02.864Z,100675.38
2019-04-28T22:07:36.219Z,100674.81
2019-04-28T22:10:09.852Z,100673.87
2019-04-28T22:12:43.932Z,100675.08
2019-04-28T22:15:18.357Z,100678.41
2019-04-28T22:17:52.219Z,100676.67
2019-04-28T22:20:25.754Z,100680.44
2019-04-28T22:23:18.040Z,100679.23
2019-04-28T22:25:51.800Z,100687.30
2019-04-28T22:28:25.348Z,100683.54
2019-04-28T22:30:59.091Z,100680.95
2019-04-28T22:33:32.240Z,100680.66
2019-04-28T22:36:04.799Z,100682.58
2019-04-28T22:38:37.992Z,100680.69
2019-04-28T22:41:10.652Z,100685.70
2019-04-28T22:43:43.172Z,100682.55
2019-04-28T22:46:15.982Z,100684.91
2019-04-28T22:48:49.591Z,100686.89
2019-04-28T22:51:22.808Z,100687.27
2019-04-28T22:53:58.085Z,100685.38
2019-04-28T22:56:41.708Z,100697.73
2019-04-28T22:59:20.960Z,100699.08
2019-04-28T23:02:00.593Z,100695.56
2019-04-28T23:04:39.693Z,100701.06
2019-04-28T23:07:12.298Z,100699.45
2019-04-28T23:09:46.148Z,100707.59
2019-04-28T23:12:19.975Z,100706.64
2019-04-28T23:14:52.489Z,100708.37
2019-04-28T23:17:25.345Z,100714.07
2019-04-28T23:19:58.056Z,100716.70
2019-04-28T23:22:47.176Z,100719.09
2019-04-28T23:25:21.002Z,100722.11
2019-04-28T23:27:54.255Z,100721.09
2019-04-28T23:30:42.335Z,100725.42
2019-04-28T23:33:14.868Z,100731.91
2019-04-28T23:35:49.266Z,100729.09
2019-04-28T23:38:22.965Z,100729.17
2019-04-28T23:41:15.072Z,100725.80
2019-04-28T23:44:00.372Z,100728.04
2019-04-28T23:46:38.718Z,100739.11
2019-04-28T23:49:14.496Z,100740.81
2019-04-28T23:52:02.726Z,100739.14
2019-04-28T23:54:37.098Z,100738.72
2019-04-28T23:57:10.773Z,100738.70
2019-04-28T23:59:44.795Z,100736.80
